Time;durP1;ratioP1;P1;durP2;ratioP2;P2;SDS_P1;SDS_P2;PMS_P1;PMS_P2;Temp;Humidity;BMP_temperature;BMP_pressure;BME280_temperature;BME280_humidity;BME280_pressure;Samples;Min_cycle;Max_cycle;Signal;HPM_P1;HPM_P2
2023/10/25 00:00:56;;;;;;;12.88;8.80;;;18.00;99.90;;;;;;4913129;29;20659;-88
2023/10/25 00:03:22;;;;;;;12.43;9.75;;;18.00;99.90;;;;;;4910252;29;20040;-88
2023/10/25 00:05:47;;;;;;;12.95;9.10;;;18.00;99.90;;;;;;4916832;29;20035;-87
2023/10/25 00:08:13;;;;;;;12.68;9.43;;;17.90;99.90;;;;;;4916476;29;20119;-88
2023/10/25 00:10:39;;;;;;;17.83;11.60;;;17.90;99.90;;;;;;4916325;29;20032;-89
2023/10/25 00:13:04;;;;;;;11.48;9.20;;;17.80;99.90;;;;;;4899348;29;20036;-88
2023/10/25 00:15:31;;;;;;;11.38;9.32;;;17.80;99.90;;;;;;4913419;29;20028;-89
2023/10/25 00:17:56;;;;;;;13.57;9.90;;;17.80;99.90;;;;;;4916950;29;20369;-89
2023/10/25 00:20:22;;;;;;;11.82;9.13;;;17.80;99.90;;;;;;4920792;29;20055;-88
2023/10/25 00:22:48;;;;;;;14.40;10.65;;;17.80;99.90;;;;;;4916484;29;20040;-88
2023/10/25 00:25:13;;;;;;;12.77;9.73;;;17.90;99.90;;;;;;4917772;29;20063;-88
2023/10/25 00:27:39;;;;;;;12.40;9.88;;;17.80;99.90;;;;;;4917252;29;20448;-79
2023/10/25 00:30:05;;;;;;;18.45;13.77;;;17.80;99.90;;;;;;4913576;29;20035;-78
2023/10/25 00:32:31;;;;;;;19.02;13.05;;;17.80;99.90;;;;;;4916164;29;20118;-80
2023/10/25 00:34:57;;;;;;;13.55;10.55;;;17.70;99.90;;;;;;4912519;29;20584;-80
2023/10/25 00:37:22;;;;;;;15.77;12.18;;;17.70;99.90;;;;;;4915843;29;20095;-80
2023/10/25 00:39:48;;;;;;;14.57;10.90;;;17.70;99.90;;;;;;4912994;29;20531;-79
2023/10/25 00:42:14;;;;;;;14.30;10.65;;;17.60;99.90;;;;;;4915754;29;20051;-79
2023/10/25 00:44:39;;;;;;;12.27;10.02;;;17.60;99.90;;;;;;4912673;29;20115;-78
2023/10/25 00:47:06;;;;;;;15.13;11.98;;;17.70;99.90;;;;;;4916543;29;20036;-78
2023/10/25 00:49:32;;;;;;;17.40;12.80;;;17.60;99.90;;;;;;4914082;29;20024;-77
2023/10/25 00:51:58;;;;;;;13.48;10.70;;;17.70;99.90;;;;;;4910029;29;20047;-87
2023/10/25 00:54:24;;;;;;;17.20;13.15;;;17.60;99.90;;;;;;4912039;29;20040;-87
2023/10/25 00:56:50;;;;;;;13.80;10.35;;;17.60;99.90;;;;;;4899486;29;20507;-87
2023/10/25 00:59:18;;;;;;;13.65;10.40;;;17.60;99.90;;;;;;4927210;29;20086;-86
2023/10/25 01:01:45;;;;;;;15.38;10.57;;;17.60;99.90;;;;;;4909956;29;20488;-86
2023/10/25 01:04:12;;;;;;;18.58;13.82;;;17.60;99.90;;;;;;4914590;29;20020;-86
2023/10/25 01:06:37;;;;;;;17.30;13.52;;;17.50;99.90;;;;;;4915908;29;20183;-87
2023/10/25 01:09:03;;;;;;;15.02;11.90;;;17.50;99.90;;;;;;4892235;29;20513;-86
2023/10/25 01:11:29;;;;;;;10.82;9.25;;;17.50;99.90;;;;;;4921244;29;20032;-86
2023/10/25 01:13:55;;;;;;;13.25;10.25;;;17.50;99.90;;;;;;4917297;29;20032;-87
2023/10/25 01:16:21;;;;;;;12.82;10.20;;;17.50;99.90;;;;;;4921909;29;20044;-86
2023/10/25 01:18:46;;;;;;;11.75;9.40;;;17.50;99.90;;;;;;4917186;29;20457;-85
2023/10/25 01:21:13;;;;;;;12.38;8.75;;;17.60;99.90;;;;;;4914250;29;20552;-86
2023/10/25 01:23:38;;;;;;;11.35;9.68;;;17.60;99.90;;;;;;4918829;29;20032;-86
2023/10/25 01:26:04;;;;;;;13.82;10.23;;;17.60;99.90;;;;;;4920212;29;20028;-85
2023/10/25 01:28:29;;;;;;;12.35;9.68;;;17.60;99.90;;;;;;4915972;29;20504;-87
2023/10/25 01:30:55;;;;;;;12.82;9.70;;;17.60;99.90;;;;;;4914507;29;20036;-86
2023/10/25 01:33:21;;;;;;;11.05;8.80;;;17.60;99.90;;;;;;4919883;29;20035;-87
2023/10/25 01:35:46;;;;;;;10.52;8.77;;;17.60;99.90;;;;;;4919987;29;20082;-86
2023/10/25 01:38:12;;;;;;;11.07;8.90;;;17.60;99.90;;;;;;4920420;29;20473;-87
2023/10/25 01:40:38;;;;;;;18.52;11.80;;;17.60;99.90;;;;;;4914542;29;20032;-87
2023/10/25 01:43:03;;;;;;;10.68;8.70;;;17.60;99.90;;;;;;4920297;29;20047;-87
2023/10/25 01:45:30;;;;;;;12.98;8.73;;;17.60;99.90;;;;;;4919419;29;20028;-86
2023/10/25 01:47:56;;;;;;;10.48;8.02;;;17.60;99.90;;;;;;4919681;29;20032;-87
2023/10/25 01:50:22;;;;;;;11.60;8.57;;;17.60;99.90;;;;;;4918201;29;20469;-87
2023/10/25 01:52:48;;;;;;;11.50;8.52;;;17.60;99.90;;;;;;4918049;29;20032;-87
2023/10/25 01:55:13;;;;;;;12.73;8.82;;;17.60;99.90;;;;;;4918105;29;20035;-85
2023/10/25 01:57:39;;;;;;;10.38;8.18;;;17.60;99.90;;;;;;4918477;29;20043;-86
2023/10/25 02:00:06;;;;;;;10.88;7.85;;;17.60;99.90;;;;;;4913109;29;20480;-87
2023/10/25 02:02:33;;;;;;;12.30;8.95;;;17.60;99.90;;;;;;4907409;29;20079;-86
2023/10/25 02:04:59;;;;;;;12.65;9.82;;;17.60;99.90;;;;;;4918678;29;20488;-86
2023/10/25 02:07:25;;;;;;;19.60;12.88;;;17.60;99.90;;;;;;4895014;29;20036;-87
2023/10/25 02:09:50;;;;;;;10.85;8.90;;;17.50;99.90;;;;;;4915882;29;20028;-87
2023/10/25 02:12:16;;;;;;;11.68;8.48;;;17.40;99.90;;;;;;4915767;29;20373;-87
2023/10/25 02:14:42;;;;;;;10.48;8.32;;;17.40;99.90;;;;;;4927658;29;20035;-87
2023/10/25 02:17:07;;;;;;;15.25;10.15;;;17.50;99.90;;;;;;4918960;29;20107;-87
2023/10/25 02:19:33;;;;;;;11.32;9.15;;;17.40;99.90;;;;;;4917330;29;20048;-87
2023/10/25 02:21:59;;;;;;;11.55;8.95;;;17.40;99.90;;;;;;4918012;29;20552;-87
2023/10/25 02:24:26;;;;;;;15.90;11.00;;;17.40;99.90;;;;;;4900331;29;21032;-87
2023/10/25 02:26:52;;;;;;;11.52;8.77;;;17.40;99.90;;;;;;4918385;29;20366;-87
2023/10/25 02:29:18;;;;;;;13.52;10.20;;;17.40;99.90;;;;;;4917439;29;20063;-87
2023/10/25 02:31:43;;;;;;;11.98;9.07;;;17.40;99.90;;;;;;4918098;29;20040;-87
2023/10/25 02:34:09;;;;;;;11.38;8.82;;;17.40;99.90;;;;;;4914071;29;20382;-86
2023/10/25 02:36:35;;;;;;;12.75;9.75;;;17.40;99.90;;;;;;4918531;29;20028;-87
2023/10/25 02:39:01;;;;;;;15.27;10.93;;;17.40;99.90;;;;;;4918610;29;20032;-87
2023/10/25 02:41:27;;;;;;;12.63;9.13;;;17.40;99.90;;;;;;4917867;29;20034;-87
2023/10/25 02:43:56;;;;;;;13.00;9.77;;;17.40;99.90;;;;;;4910800;29;20031;-86
2023/10/25 02:46:22;;;;;;;12.83;9.03;;;17.40;99.90;;;;;;4916495;29;20462;-85
2023/10/25 02:48:50;;;;;;;14.23;9.85;;;17.30;99.90;;;;;;4913427;29;20024;-86
2023/10/25 02:51:16;;;;;;;13.50;11.13;;;17.30;99.90;;;;;;4916880;29;20119;-84
2023/10/25 02:53:42;;;;;;;15.02;10.82;;;17.30;99.90;;;;;;4909106;29;20119;-85
2023/10/25 02:56:08;;;;;;;13.38;9.73;;;17.30;99.90;;;;;;4912731;29;20028;-84
2023/10/25 02:58:34;;;;;;;12.77;10.45;;;17.30;99.90;;;;;;4909547;29;20031;-84
2023/10/25 03:01:00;;;;;;;19.80;12.55;;;17.30;99.90;;;;;;4914179;29;20858;-85
2023/10/25 03:03:31;;;;;;;19.80;14.45;;;17.20;99.90;;;;;;4910129;29;20091;-84
2023/10/25 03:05:57;;;;;;;12.98;10.38;;;17.20;99.90;;;;;;4912975;29;20043;-85
2023/10/25 03:08:23;;;;;;;15.15;11.68;;;17.20;99.90;;;;;;4915930;29;20116;-85
2023/10/25 03:10:49;;;;;;;17.67;11.10;;;17.20;99.90;;;;;;4911199;29;20039;-85
2023/10/25 03:13:15;;;;;;;16.83;12.48;;;17.20;99.90;;;;;;4906834;29;20033;-84
2023/10/25 03:15:41;;;;;;;13.40;10.60;;;17.20;99.90;;;;;;4912697;29;20040;-85
2023/10/25 03:18:07;;;;;;;15.77;11.40;;;17.10;99.90;;;;;;4917337;29;20036;-85
2023/10/25 03:20:33;;;;;;;14.65;11.27;;;17.20;99.90;;;;;;4914404;29;20119;-85
2023/10/25 03:22:59;;;;;;;19.00;14.20;;;17.10;99.90;;;;;;4898825;29;20127;-85
2023/10/25 03:25:24;;;;;;;19.13;12.35;;;17.20;99.90;;;;;;4916754;29;20064;-85
2023/10/25 03:27:51;;;;;;;18.50;14.73;;;17.10;99.90;;;;;;4917192;29;20385;-85
2023/10/25 03:30:17;;;;;;;14.88;11.80;;;17.10;99.90;;;;;;4899775;29;20035;-86
2023/10/25 03:32:43;;;;;;;14.38;11.32;;;17.00;99.90;;;;;;4916948;29;20115;-86
2023/10/25 03:35:09;;;;;;;16.02;12.70;;;17.00;99.90;;;;;;4910078;29;20056;-86
2023/10/25 03:37:39;;;;;;;16.08;12.60;;;17.00;99.90;;;;;;4916083;29;20036;-86
2023/10/25 03:40:09;;;;;;;15.45;11.75;;;16.90;99.90;;;;;;4916175;29;20377;-86
2023/10/25 03:42:35;;;;;;;19.52;13.93;;;17.00;99.90;;;;;;4916626;29;20039;-85
2023/10/25 03:45:01;;;;;;;17.83;12.82;;;17.00;99.90;;;;;;4916050;29;20028;-86
2023/10/25 03:47:27;;;;;;;19.42;14.73;;;17.00;99.90;;;;;;4916362;29;20024;-86
2023/10/25 03:49:53;;;;;;;20.85;15.73;;;17.00;99.90;;;;;;4915787;29;20152;-87
2023/10/25 03:52:19;;;;;;;17.23;12.45;;;17.00;99.90;;;;;;4916021;29;20115;-86
2023/10/25 03:54:45;;;;;;;16.50;12.80;;;16.90;99.90;;;;;;4908125;29;20118;-86
2023/10/25 03:57:10;;;;;;;20.95;16.20;;;16.90;99.90;;;;;;4916595;29;20036;-85
2023/10/25 03:59:36;;;;;;;23.42;15.52;;;16.80;99.90;;;;;;4915137;29;20035;-86
2023/10/25 04:02:02;;;;;;;16.27;11.73;;;16.80;99.90;;;;;;4913095;29;20051;-87
2023/10/25 04:04:28;;;;;;;16.05;11.77;;;16.80;99.90;;;;;;4910665;29;20362;-86
2023/10/25 04:06:53;;;;;;;17.67;13.43;;;16.80;99.90;;;;;;4915629;29;20048;-88
2023/10/25 04:09:19;;;;;;;17.20;12.30;;;16.70;99.90;;;;;;4912903;29;20517;-87
2023/10/25 04:11:45;;;;;;;17.02;12.10;;;16.70;99.90;;;;;;4916294;29;20047;-85
2023/10/25 04:14:10;;;;;;;23.38;15.50;;;16.70;99.90;;;;;;4914746;29;20035;-86
2023/10/25 04:16:37;;;;;;;19.75;14.80;;;16.70;99.90;;;;;;4913064;29;20540;-86
2023/10/25 04:19:03;;;;;;;23.77;15.13;;;16.70;99.90;;;;;;4915038;29;20032;-87
2023/10/25 04:21:29;;;;;;;19.38;13.50;;;16.70;99.90;;;;;;4895743;29;20051;-86
2023/10/25 04:23:54;;;;;;;17.13;12.55;;;16.70;99.90;;;;;;4911394;29;20103;-87
2023/10/25 04:26:20;;;;;;;20.98;14.20;;;16.70;99.90;;;;;;4915421;29;20473;-86
2023/10/25 04:28:46;;;;;;;24.98;17.00;;;16.70;99.90;;;;;;4915796;29;20038;-88
2023/10/25 04:31:12;;;;;;;20.20;14.50;;;16.70;99.90;;;;;;4916391;29;20032;-87
2023/10/25 04:33:38;;;;;;;15.93;12.95;;;16.70;99.90;;;;;;4916319;29;20028;-88
2023/10/25 04:36:05;;;;;;;17.55;12.93;;;16.70;99.90;;;;;;4915478;29;20016;-87
2023/10/25 04:38:31;;;;;;;20.58;14.70;;;16.70;99.90;;;;;;4891843;29;20043;-87
2023/10/25 04:40:57;;;;;;;17.75;13.15;;;16.70;99.90;;;;;;4899880;29;20036;-87
2023/10/25 04:43:23;;;;;;;17.48;12.93;;;16.70;99.90;;;;;;4919605;29;20079;-88
2023/10/25 04:45:51;;;;;;;21.27;14.48;;;16.70;99.90;;;;;;4916478;29;20062;-88
2023/10/25 04:48:17;;;;;;;19.35;13.35;;;16.60;99.90;;;;;;4915947;29;20103;-87
2023/10/25 04:50:43;;;;;;;18.38;13.93;;;16.60;99.90;;;;;;4890577;29;20119;-86
2023/10/25 04:53:09;;;;;;;20.40;14.55;;;16.60;99.90;;;;;;4914954;29;20134;-87
2023/10/25 04:55:36;;;;;;;16.60;10.75;;;16.60;99.90;;;;;;4916480;29;20112;-89
2023/10/25 04:58:03;;;;;;;16.75;12.57;;;16.60;99.90;;;;;;4918018;29;20036;-89
2023/10/25 05:00:30;;;;;;;15.90;12.20;;;16.70;99.90;;;;;;4917653;29;20142;-79
2023/10/25 05:02:56;;;;;;;19.58;13.07;;;16.70;99.90;;;;;;4903748;29;20067;-79
2023/10/25 05:05:22;;;;;;;19.58;13.82;;;16.70;99.90;;;;;;4918778;29;20027;-79
2023/10/25 05:07:48;;;;;;;17.27;13.15;;;16.70;99.90;;;;;;4914018;29;20043;-82
2023/10/25 05:10:14;;;;;;;24.58;14.93;;;16.70;99.90;;;;;;4919383;29;20052;-82
2023/10/25 05:12:42;;;;;;;17.38;12.85;;;16.70;99.90;;;;;;4901018;29;20116;-82
2023/10/25 05:15:14;;;;;;;19.42;14.07;;;16.70;99.90;;;;;;4917404;29;20040;-82
2023/10/25 05:17:44;;;;;;;17.60;13.90;;;16.80;99.90;;;;;;4918076;29;20409;-82
2023/10/25 05:20:10;;;;;;;21.98;15.35;;;16.70;99.90;;;;;;4910398;29;20040;-81
2023/10/25 05:22:48;;;;;;;21.35;14.15;;;16.70;99.90;;;;;;4889179;29;20037;-82
2023/10/25 05:25:15;;;;;;;21.00;13.50;;;16.70;99.90;;;;;;4912978;29;20455;-80
2023/10/25 05:27:41;;;;;;;19.98;14.18;;;16.60;99.90;;;;;;4886719;29;20470;-89
2023/10/25 05:30:10;;;;;;;18.73;13.68;;;16.60;99.90;;;;;;4911433;29;20031;-87
2023/10/25 05:32:37;;;;;;;24.83;16.70;;;16.60;99.90;;;;;;4918790;29;20107;-80
2023/10/25 05:35:05;;;;;;;19.98;14.32;;;16.60;99.90;;;;;;4901641;29;20103;-80
2023/10/25 05:37:31;;;;;;;19.67;14.38;;;16.50;99.90;;;;;;4902391;29;20176;-80
2023/10/25 05:39:57;;;;;;;22.45;15.40;;;16.50;99.90;;;;;;4916880;29;20566;-80
2023/10/25 05:42:24;;;;;;;24.63;16.95;;;16.50;99.90;;;;;;4900449;29;20046;-80
2023/10/25 05:44:55;;;;;;;22.85;14.70;;;16.40;99.90;;;;;;4915900;29;20088;-84
2023/10/25 05:47:25;;;;;;;22.83;15.07;;;16.40;99.90;;;;;;4902316;29;20465;-80
2023/10/25 05:49:52;;;;;;;20.05;14.85;;;16.40;99.90;;;;;;4919328;29;20028;-79
2023/10/25 05:52:18;;;;;;;23.77;16.73;;;16.40;99.90;;;;;;4916102;29;20511;-80
2023/10/25 05:54:44;;;;;;;27.40;17.08;;;16.40;99.90;;;;;;4919170;29;20028;-79
2023/10/25 05:57:10;;;;;;;24.35;15.07;;;16.40;99.90;;;;;;4919811;29;20047;-79
2023/10/25 05:59:37;;;;;;;23.08;15.32;;;16.40;99.90;;;;;;4902689;29;20050;-90
2023/10/25 06:02:12;;;;;;;21.38;14.85;;;16.40;99.90;;;;;;4917753;29;20028;-91
2023/10/25 06:04:39;;;;;;;20.13;14.35;;;16.40;99.90;;;;;;4901112;29;20033;-90
2023/10/25 06:07:06;;;;;;;24.70;17.33;;;16.50;99.90;;;;;;4912357;29;20561;-91
2023/10/25 06:09:32;;;;;;;21.08;14.43;;;16.50;99.90;;;;;;4902665;29;20429;-90
2023/10/25 06:11:59;;;;;;;23.70;17.17;;;16.40;99.90;;;;;;4902840;29;20084;-91
2023/10/25 06:14:24;;;;;;;24.10;15.82;;;16.50;99.90;;;;;;4919752;29;20024;-90
2023/10/25 06:16:50;;;;;;;23.45;16.38;;;16.50;99.90;;;;;;4919454;29;20035;-90
2023/10/25 06:19:16;;;;;;;22.10;14.10;;;16.50;99.90;;;;;;4919447;29;20051;-90
2023/10/25 06:21:42;;;;;;;21.35;14.95;;;16.50;99.90;;;;;;4902482;29;20092;-90
2023/10/25 06:24:08;;;;;;;20.92;14.18;;;16.50;99.90;;;;;;4919672;29;20140;-91
2023/10/25 06:26:33;;;;;;;19.83;13.82;;;16.60;99.90;;;;;;4919482;29;20056;-91
2023/10/25 06:28:59;;;;;;;22.17;14.95;;;16.60;99.90;;;;;;4902670;29;20366;-90
2023/10/25 06:31:25;;;;;;;19.92;14.73;;;16.60;99.90;;;;;;4899710;29;20027;-91
2023/10/25 06:33:50;;;;;;;22.35;15.23;;;16.60;99.90;;;;;;4901133;29;20044;-90
2023/10/25 06:36:17;;;;;;;23.02;14.23;;;16.70;99.90;;;;;;4900867;29;20028;-90
2023/10/25 06:38:43;;;;;;;22.05;14.48;;;16.70;99.90;;;;;;4901119;29;20056;-91
2023/10/25 06:41:19;;;;;;;23.00;15.95;;;16.70;99.90;;;;;;4900365;29;20088;-90
2023/10/25 06:43:45;;;;;;;20.08;14.15;;;16.70;99.80;;;;;;4904289;29;20043;-89
2023/10/25 06:46:12;;;;;;;23.10;15.68;;;16.70;99.90;;;;;;4918739;29;20390;-89
2023/10/25 06:48:38;;;;;;;22.20;14.40;;;16.80;99.60;;;;;;4918508;29;20083;-87
2023/10/25 06:51:09;;;;;;;20.63;13.70;;;16.70;99.70;;;;;;4919417;29;20377;-90
2023/10/25 06:53:36;;;;;;;;;;;16.80;99.70;;;;;;4919456;29;20039;-88
2023/10/25 06:56:03;;;;;;;25.95;16.30;;;16.80;99.90;;;;;;4918048;29;19911;-88
2023/10/25 06:58:29;;;;;;;18.58;13.15;;;16.80;99.70;;;;;;4916991;29;20032;-79
2023/10/25 07:00:58;;;;;;;18.48;12.40;;;16.80;99.70;;;;;;4900783;29;20084;-79
2023/10/25 07:03:35;;;;;;;21.02;14.73;;;16.90;99.70;;;;;;4918224;29;20118;-78
2023/10/25 07:06:03;;;;;;;20.15;13.85;;;16.90;99.70;;;;;;4918489;29;20032;-78
2023/10/25 07:08:32;;;;;;;24.70;16.98;;;16.90;99.80;;;;;;4918177;29;20107;-79
2023/10/25 07:10:58;;;;;;;19.77;14.40;;;16.90;99.60;;;;;;4917988;29;20051;-79
2023/10/25 07:13:26;;;;;;;21.20;13.95;;;16.90;99.70;;;;;;4918042;29;20028;-78
2023/10/25 07:15:52;;;;;;;26.55;17.02;;;16.90;99.80;;;;;;4900997;29;20389;-78
2023/10/25 07:18:18;;;;;;;27.73;15.85;;;16.90;99.70;;;;;;4917706;29;20037;-89
2023/10/25 07:20:43;;;;;;;21.48;15.27;;;17.00;99.80;;;;;;4917292;29;20052;-88
2023/10/25 07:23:09;;;;;;;17.95;12.88;;;17.00;99.80;;;;;;4918199;29;20028;-87
2023/10/25 07:25:38;;;;;;;21.98;14.38;;;17.10;99.70;;;;;;4918345;29;20063;-88
2023/10/25 07:28:04;;;;;;;19.83;13.60;;;17.10;99.60;;;;;;4918415;29;20020;-87
2023/10/25 07:30:30;;;;;;;19.50;13.50;;;17.20;99.50;;;;;;4901082;29;20036;-88
2023/10/25 07:32:55;;;;;;;18.08;12.80;;;17.20;99.50;;;;;;4918074;29;20495;-89
2023/10/25 07:35:21;;;;;;;20.00;13.65;;;17.10;99.40;;;;;;4918113;29;20043;-88
2023/10/25 07:37:47;;;;;;;15.93;11.80;;;17.10;99.40;;;;;;4918119;29;20039;-88
2023/10/25 07:40:12;;;;;;;18.98;13.55;;;17.20;99.50;;;;;;4917856;29;20119;-89
2023/10/25 07:42:38;;;;;;;18.33;13.10;;;17.20;99.60;;;;;;4917888;29;20024;-86
2023/10/25 07:45:04;;;;;;;17.55;11.68;;;17.30;99.50;;;;;;4918268;29;20032;-86
2023/10/25 07:47:30;;;;;;;16.60;12.70;;;17.40;99.40;;;;;;4913704;29;20100;-86
2023/10/25 07:49:56;;;;;;;19.35;12.77;;;17.50;99.30;;;;;;4899133;29;20123;-86
2023/10/25 07:52:23;;;;;;;20.38;12.93;;;17.50;99.30;;;;;;4898113;29;20504;-86
2023/10/25 07:54:49;;;;;;;15.45;11.13;;;17.60;99.20;;;;;;4898547;29;20033;-85
2023/10/25 07:57:15;;;;;;;18.73;13.70;;;17.70;99.10;;;;;;4881796;29;20046;-86
2023/10/25 07:59:40;;;;;;;17.00;11.98;;;17.80;98.80;;;;;;4898993;29;20457;-85
2023/10/25 08:02:06;;;;;;;15.30;11.32;;;17.80;98.90;;;;;;4898363;29;20032;-86
2023/10/25 08:04:32;;;;;;;16.40;11.88;;;17.90;98.80;;;;;;4898638;29;20031;-86
2023/10/25 08:06:59;;;;;;;16.05;12.02;;;18.00;98.70;;;;;;4898499;29;20031;-86
2023/10/25 08:09:24;;;;;;;15.90;11.13;;;18.00;98.30;;;;;;4882072;29;20037;-85
2023/10/25 08:11:52;;;;;;;18.08;11.27;;;18.00;98.30;;;;;;4898527;29;20021;-88
2023/10/25 08:14:18;;;;;;;16.27;12.15;;;18.00;98.50;;;;;;4897919;29;20052;-88
2023/10/25 08:16:45;;;;;;;15.15;11.13;;;18.00;98.30;;;;;;4898316;29;20108;-88
2023/10/25 08:19:11;;;;;;;15.23;10.77;;;18.00;98.30;;;;;;4916855;29;20032;-86
2023/10/25 08:21:37;;;;;;;14.13;10.05;;;18.00;98.00;;;;;;4917355;29;20448;-86
2023/10/25 08:24:05;;;;;;;19.23;14.30;;;18.00;98.10;;;;;;4917205;29;20016;-85
2023/10/25 08:26:35;;;;;;;13.52;10.00;;;18.00;97.90;;;;;;4916826;29;20032;-86
2023/10/25 08:29:02;;;;;;;14.90;10.82;;;18.10;98.00;;;;;;4900025;29;20502;-86
2023/10/25 08:31:27;;;;;;;15.45;10.98;;;18.10;98.00;;;;;;4900088;29;20083;-85
2023/10/25 08:33:53;;;;;;;16.90;11.40;;;18.10;98.20;;;;;;4919334;29;20110;-86
2023/10/25 08:36:19;;;;;;;16.77;11.50;;;18.20;98.30;;;;;;4920546;29;20108;-86
2023/10/25 08:38:44;;;;;;;13.70;10.15;;;18.20;98.00;;;;;;4920443;29;20560;-86
2023/10/25 08:41:11;;;;;;;15.52;10.85;;;18.20;98.10;;;;;;4920872;29;20437;-86
2023/10/25 08:43:38;;;;;;;14.43;10.70;;;18.30;98.20;;;;;;4920919;29;20024;-86
2023/10/25 08:46:05;;;;;;;14.23;10.95;;;18.40;98.20;;;;;;4920942;29;20107;-86
2023/10/25 08:48:32;;;;;;;11.70;8.55;;;18.40;97.80;;;;;;4920233;29;20012;-86
2023/10/25 08:51:01;;;;;;;12.18;8.02;;;18.40;98.00;;;;;;4920527;29;20389;-85
2023/10/25 08:53:28;;;;;;;17.50;10.15;;;18.40;97.90;;;;;;4920571;29;20101;-86
2023/10/25 08:55:56;;;;;;;11.50;8.93;;;18.40;97.90;;;;;;4903739;29;20112;-85
2023/10/25 08:58:26;;;;;;;11.73;8.20;;;18.50;98.00;;;;;;4903600;29;20032;-85
2023/10/25 09:00:52;;;;;;;;;;;18.50;97.90;;;;;;4920192;29;20107;-86
2023/10/25 09:03:30;;;;;;;11.18;8.15;;;18.50;98.00;;;;;;4919759;29;19915;-85
2023/10/25 09:05:56;;;;;;;14.82;9.43;;;18.50;98.00;;;;;;4919935;29;20103;-86
2023/10/25 09:08:25;;;;;;;10.70;8.48;;;18.60;97.80;;;;;;4920000;29;20147;-88
2023/10/25 09:11:02;;;;;;;9.63;7.70;;;18.70;97.80;;;;;;4920581;29;20039;-88
2023/10/25 09:13:41;;;;;;;10.70;7.93;;;18.70;97.80;;;;;;4919758;29;20034;-88
2023/10/25 09:16:08;;;;;;;9.48;7.82;;;18.70;97.90;;;;;;4920233;29;20115;-88
2023/10/25 09:18:35;;;;;;;9.52;8.10;;;18.80;97.80;;;;;;4900790;29;20405;-88
2023/10/25 09:21:02;;;;;;;10.55;8.13;;;18.80;97.70;;;;;;4911869;29;20083;-89
2023/10/25 09:23:28;;;;;;;11.40;7.65;;;18.90;97.70;;;;;;4917258;29;20064;-88
2023/10/25 09:26:04;;;;;;;9.05;7.07;;;19.00;97.50;;;;;;4920274;29;20028;-89
2023/10/25 09:28:30;;;;;;;9.52;7.50;;;19.00;97.30;;;;;;4919708;29;20034;-88
2023/10/25 09:31:01;;;;;;;9.52;6.80;;;19.00;97.10;;;;;;4902676;29;20063;-89
2023/10/25 09:33:30;;;;;;;11.18;7.07;;;19.10;96.90;;;;;;4899709;29;20040;-88
2023/10/25 09:35:57;;;;;;;10.43;8.35;;;19.10;96.90;;;;;;4920022;29;20079;-88
2023/10/25 09:38:24;;;;;;;10.00;7.45;;;19.10;96.60;;;;;;4918147;29;20039;-88
2023/10/25 09:40:50;;;;;;;11.43;7.75;;;19.10;97.00;;;;;;4917758;29;20028;-89
2023/10/25 09:43:20;;;;;;;7.90;6.25;;;19.10;97.10;;;;;;4918799;29;20025;-88
2023/10/25 09:45:57;;;;;;;8.27;6.32;;;19.10;96.80;;;;;;4915393;29;20023;-87
2023/10/25 09:48:23;;;;;;;7.43;5.63;;;19.10;96.80;;;;;;4917166;29;20036;-77
2023/10/25 09:50:52;;;;;;;8.07;6.78;;;19.10;96.90;;;;;;4917224;29;20017;-80
2023/10/25 09:53:30;;;;;;;7.40;5.95;;;19.10;97.10;;;;;;4899283;29;20039;-81
2023/10/25 09:56:02;;;;;;;6.45;5.22;;;19.20;97.30;;;;;;4902017;29;20122;-81
2023/10/25 09:58:35;;;;;;;7.03;5.32;;;19.20;96.60;;;;;;4918544;29;20031;-81
2023/10/25 10:01:03;;;;;;;6.45;5.03;;;19.20;96.80;;;;;;4919014;29;20032;-81
2023/10/25 10:04:17;;;;;;;5.95;4.70;;;19.30;96.90;;;;;;4918493;29;20111;-80
2023/10/25 10:06:52;;;;;;;7.53;5.30;;;19.40;96.50;;;;;;4915563;29;20071;-81
2023/10/25 10:09:38;;;;;;;8.07;5.32;;;19.40;96.20;;;;;;4902132;29;20076;-81
2023/10/25 10:12:05;;;;;;;7.45;5.07;;;19.40;96.30;;;;;;4918610;29;20044;-81
2023/10/25 10:14:36;;;;;;;7.05;5.78;;;19.40;96.30;;;;;;4917355;29;20032;-80
2023/10/25 10:17:05;;;;;;;6.47;5.32;;;19.40;96.50;;;;;;4916166;29;20477;-80
2023/10/25 10:19:31;;;;;;;7.45;5.65;;;19.40;96.60;;;;;;4918059;29;20044;-80
2023/10/25 10:22:18;;;;;;;7.25;5.35;;;19.50;96.40;;;;;;4933461;29;20031;-91
2023/10/25 10:24:49;;;;;;;7.88;5.20;;;19.50;96.20;;;;;;4938525;29;20424;-91
2023/10/25 10:27:23;;;;;;;6.18;5.25;;;19.50;96.30;;;;;;4905229;29;20043;-91
2023/10/25 10:29:49;;;;;;;11.32;6.95;;;19.60;96.20;;;;;;4918886;29;20028;-91
2023/10/25 10:32:16;;;;;;;6.35;5.35;;;19.50;95.50;;;;;;4918548;29;20024;-91
2023/10/25 10:34:53;;;;;;;6.93;4.95;;;19.50;95.70;;;;;;4920157;29;20032;-90
2023/10/25 10:37:21;;;;;;;6.75;5.00;;;19.50;96.00;;;;;;4919024;29;20035;-91
2023/10/25 10:39:56;;;;;;;5.25;4.35;;;19.50;95.80;;;;;;4919155;29;20103;-91
2023/10/25 10:42:31;;;;;;;6.13;4.85;;;19.60;95.70;;;;;;4920685;29;20064;-91
2023/10/25 10:44:57;;;;;;;8.43;5.65;;;19.80;96.00;;;;;;4906331;29;20032;-91
2023/10/25 10:47:28;;;;;;;6.68;4.97;;;19.90;95.90;;;;;;4919409;29;20024;-91
2023/10/25 10:50:01;;;;;;;7.60;4.97;;;20.30;96.00;;;;;;4918735;29;20039;-81
2023/10/25 10:52:26;;;;;;;14.55;4.95;;;20.60;95.20;;;;;;4927038;29;20106;-81
2023/10/25 10:54:52;;;;;;;6.45;4.88;;;21.00;94.80;;;;;;4922551;29;20498;-81
2023/10/25 10:57:20;;;;;;;6.22;3.95;;;21.40;94.90;;;;;;4916807;29;20036;-81
2023/10/25 10:59:46;;;;;;;6.90;3.25;;;21.70;93.90;;;;;;4918251;29;20080;-81
2023/10/25 11:02:13;;;;;;;3.55;2.85;;;22.00;93.90;;;;;;4915220;29;20025;-79
2023/10/25 11:04:42;;;;;;;4.57;3.25;;;22.40;93.20;;;;;;4917580;29;20036;-89
2023/10/25 11:07:08;;;;;;;4.38;2.95;;;22.70;91.60;;;;;;4918328;29;20108;-88
2023/10/25 11:09:33;;;;;;;5.97;2.83;;;22.90;92.10;;;;;;4915340;29;20123;-82
2023/10/25 11:12:14;;;;;;;4.45;3.00;;;23.10;91.90;;;;;;4916378;29;20040;-82
2023/10/25 11:14:45;;;;;;;4.60;3.20;;;23.40;91.80;;;;;;4920403;29;20214;-90
2023/10/25 11:17:11;;;;;;;7.57;2.60;;;23.50;91.40;;;;;;4925708;29;20086;-92
2023/10/25 11:19:36;;;;;;;7.10;5.10;;;23.70;91.30;;;;;;4897537;29;20055;-92
2023/10/25 11:22:02;;;;;;;8.23;4.40;;;23.60;88.20;;;;;;4918732;29;20550;-92
2023/10/25 11:24:29;;;;;;;4.78;3.15;;;23.30;88.30;;;;;;4895652;29;20438;-90
2023/10/25 11:26:55;;;;;;;11.13;3.95;;;23.20;90.00;;;;;;4913633;29;20031;-90
2023/10/25 11:29:22;;;;;;;4.45;2.33;;;23.10;90.10;;;;;;4917884;29;20028;-89
2023/10/25 11:31:55;;;;;;;4.53;2.10;;;22.80;89.10;;;;;;4917380;29;20059;-88
2023/10/25 11:34:21;;;;;;;3.33;2.45;;;22.60;89.30;;;;;;4917565;29;20028;-88
2023/10/25 11:36:47;;;;;;;6.20;3.22;;;22.40;89.70;;;;;;4906720;29;20108;-89
2023/10/25 11:39:13;;;;;;;7.28;2.92;;;22.20;90.50;;;;;;4917805;29;20064;-88
2023/10/25 11:41:42;;;;;;;6.30;2.65;;;22.10;90.80;;;;;;4916559;29;20032;-90
2023/10/25 11:44:08;;;;;;;6.07;3.55;;;22.00;91.00;;;;;;4900457;29;20032;-90
2023/10/25 11:46:36;;;;;;;9.18;5.20;;;21.90;90.90;;;;;;4917538;29;20044;-89
2023/10/25 11:49:03;;;;;;;6.15;4.93;;;21.70;91.60;;;;;;4917090;29;20028;-88
2023/10/25 11:51:30;;;;;;;10.55;7.50;;;21.60;92.10;;;;;;4915540;29;20038;-89
2023/10/25 11:53:55;;;;;;;8.73;5.15;;;21.50;92.20;;;;;;4898310;29;20550;-89
2023/10/25 11:56:22;;;;;;;6.07;4.90;;;21.40;92.40;;;;;;4899777;29;20119;-89
2023/10/25 11:58:51;;;;;;;6.35;4.25;;;21.40;92.40;;;;;;4902990;29;20099;-89
2023/10/25 12:01:17;;;;;;;4.78;3.95;;;21.50;92.50;;;;;;4917003;29;20035;-89
2023/10/25 12:03:43;;;;;;;6.97;4.53;;;21.40;92.30;;;;;;4917472;29;20103;-86
2023/10/25 12:06:09;;;;;;;5.72;3.70;;;21.40;92.10;;;;;;4899227;29;20031;-89
2023/10/25 12:08:35;;;;;;;4.90;3.80;;;21.40;92.30;;;;;;4916957;29;20028;-89
2023/10/25 12:11:00;;;;;;;8.32;4.82;;;21.50;92.50;;;;;;4917529;29;20115;-87
2023/10/25 12:13:27;;;;;;;11.27;7.85;;;21.60;92.20;;;;;;4916912;29;20060;-88
2023/10/25 12:15:53;;;;;;;15.35;10.70;;;21.30;93.00;;;;;;4918202;29;20161;-88
2023/10/25 12:18:18;;;;;;;9.02;6.68;;;21.10;93.50;;;;;;4918781;29;20032;-87
2023/10/25 12:20:44;;;;;;;12.43;8.93;;;21.00;93.50;;;;;;4916868;29;20044;-88
2023/10/25 12:23:10;;;;;;;11.95;7.47;;;21.10;93.80;;;;;;4920391;29;20039;-88
2023/10/25 12:25:37;;;;;;;10.25;6.28;;;20.90;93.60;;;;;;4916152;29;20373;-88
2023/10/25 12:28:17;;;;;;;9.57;6.60;;;20.90;93.90;;;;;;4912538;29;20032;-88
2023/10/25 12:30:44;;;;;;;7.68;5.45;;;20.90;93.70;;;;;;4894765;29;20040;-88
2023/10/25 12:33:10;;;;;;;6.22;4.38;;;20.80;93.70;;;;;;4915064;29;20032;-80